Time;durP1;ratioP1;P1;durP2;ratioP2;P2;SDS_P1;SDS_P2;PMS_P1;PMS_P2;Temp;Humidity;BMP_temperature;BMP_pressure;BME280_temperature;BME280_humidity;BME280_pressure;Samples;Min_cycle;Max_cycle;Signal;HPM_P1;HPM_P2
2023/07/06 00:01:00;;;;;;;20.40;8.40;;;;;;;19.50;100.00;98648.91;4959400;28;20070;-93
2023/07/06 00:03:27;;;;;;;21.05;8.75;;;;;;;19.56;100.00;98667.38;4991019;28;20081;-93
2023/07/06 00:05:53;;;;;;;18.75;8.65;;;;;;;19.55;100.00;98659.38;4958282;29;20048;-93
2023/07/06 00:08:20;;;;;;;19.15;9.38;;;;;;;19.42;100.00;98654.78;4966511;28;20044;-94
2023/07/06 00:10:49;;;;;;;18.25;8.43;;;;;;;19.21;100.00;98638.16;4958386;28;20027;-92
2023/07/06 00:13:16;;;;;;;17.88;8.38;;;;;;;19.21;100.00;98630.06;4958761;29;20039;-92
2023/07/06 00:15:43;;;;;;;18.52;8.73;;;;;;;19.15;100.00;98634.97;4962117;28;20408;-92
2023/07/06 00:18:11;;;;;;;24.05;9.00;;;;;;;19.24;100.00;98662.22;4981954;28;20149;-93
2023/07/06 00:20:37;;;;;;;18.35;8.40;;;;;;;19.05;100.00;98643.66;4965080;28;20075;-93
2023/07/06 00:23:03;;;;;;;18.98;8.98;;;;;;;18.94;100.00;98642.63;4972515;28;20035;-92
2023/07/06 00:25:33;;;;;;;20.98;9.88;;;;;;;19.04;100.00;98670.72;4964948;28;20042;-92
2023/07/06 00:28:02;;;;;;;19.58;8.57;;;;;;;18.97;100.00;98672.94;4958898;28;20569;-92
2023/07/06 00:33:27;;;;;;;22.45;9.57;;;;;;;18.92;100.00;98663.41;5116183;27;20389;-92
2023/07/06 00:35:52;;;;;;;21.05;10.07;;;;;;;18.87;100.00;98664.56;5114549;28;20139;-94
2023/07/06 00:38:21;;;;;;;21.27;9.55;;;;;;;18.89;100.00;98672.56;5113979;28;20078;-92
2023/07/06 00:40:49;;;;;;;22.88;9.50;;;;;;;18.75;100.00;98656.34;5114137;28;20036;-92
2023/07/06 00:43:18;;;;;;;23.93;10.53;;;;;;;18.87;100.00;98678.03;5113324;27;20043;-92
2023/07/06 00:45:45;;;;;;;22.95;9.55;;;;;;;18.79;100.00;98676.78;5113037;28;20040;-92
2023/07/06 00:48:20;;;;;;;22.20;9.55;;;;;;;18.57;100.00;98651.16;5113814;27;20039;-92
2023/07/06 00:50:52;;;;;;;25.65;9.18;;;;;;;18.75;100.00;98672.50;5113292;28;20035;-93
2023/07/06 00:53:19;;;;;;;21.98;9.68;;;;;;;18.68;100.00;98666.66;5111185;28;20064;-92
2023/07/06 00:55:47;;;;;;;19.23;9.02;;;;;;;18.60;100.00;98660.84;5114258;28;20074;-93
2023/07/06 00:58:18;;;;;;;21.95;9.68;;;;;;;18.65;100.00;98673.09;5113460;28;20044;-92
2023/07/06 01:00:46;;;;;;;23.55;9.80;;;;;;;18.55;100.00;98660.28;5113107;28;20040;-94
2023/07/06 01:03:12;;;;;;;24.13;9.70;;;;;;;18.59;100.00;98665.38;5114178;28;20050;-93
2023/07/06 01:05:40;;;;;;;28.25;10.48;;;;;;;18.53;100.00;98668.44;5113326;28;20040;-93
2023/07/06 01:08:11;;;;;;;26.10;9.85;;;;;;;18.59;100.00;98681.53;5113538;28;20040;-93
2023/07/06 01:10:39;;;;;;;19.90;9.55;;;;;;;18.43;100.00;98664.56;5113044;28;20046;-92
2023/07/06 01:13:07;;;;;;;22.77;10.20;;;;;;;18.48;100.00;98684.03;5112892;28;20044;-93
2023/07/06 01:15:38;;;;;;;21.02;9.93;;;;;;;18.34;100.00;98663.31;5113262;28;20146;-93
2023/07/06 01:18:08;;;;;;;23.02;9.55;;;;;;;18.47;100.00;98677.75;5112228;28;20032;-93
2023/07/06 01:20:42;;;;;;;25.33;10.02;;;;;;;18.34;100.00;98654.38;5112100;28;20083;-93
2023/07/06 01:23:34;;;;;;;21.88;9.88;;;;;;;18.47;100.00;98679.59;5092147;28;20048;-93
2023/07/06 01:26:13;;;;;;;24.10;9.77;;;;;;;18.39;100.00;98669.31;5098084;28;20085;-93
2023/07/06 01:29:11;;;;;;;20.38;9.73;;;;;;;18.46;100.00;98686.81;5112728;28;20101;-93
2023/07/06 01:31:46;;;;;;;22.52;9.45;;;;;;;18.41;100.00;98677.25;5109575;28;20074;-93
2023/07/06 01:34:20;;;;;;;19.20;10.38;;;;;;;18.36;100.00;98668.63;5112626;28;20221;-93
2023/07/06 01:36:53;;;;;;;21.85;8.80;;;;;;;18.32;100.00;98656.28;5112728;28;20043;-93
2023/07/06 01:39:22;;;;;;;22.33;9.93;;;;;;;18.37;100.00;98681.13;5112270;28;20047;-93
2023/07/06 01:42:26;;;;;;;22.33;9.03;;;;;;;18.43;100.00;98688.81;5112014;28;20509;-93
2023/07/06 01:44:55;;;;;;;19.33;9.35;;;;;;;18.29;100.00;98669.94;5098396;28;20093;-92
2023/07/06 01:47:21;;;;;;;21.92;9.23;;;;;;;18.26;100.00;98660.25;5098703;28;20111;-93
2023/07/06 01:49:49;;;;;;;25.50;10.25;;;;;;;18.37;100.00;98681.13;5098673;28;20452;-93
2023/07/06 01:52:24;;;;;;;21.20;9.50;;;;;;;18.25;100.00;98656.66;5098663;28;20091;-92
2023/07/06 01:54:58;;;;;;;22.52;9.32;;;;;;;18.34;100.00;98682.16;5099109;28;20016;-92
2023/07/06 01:57:35;;;;;;;22.48;9.73;;;;;;;18.36;100.00;98679.38;5099327;28;20055;-93
2023/07/06 02:00:09;;;;;;;21.95;9.00;;;;;;;18.23;100.00;98660.41;5099982;28;20040;-92
2023/07/06 02:02:36;;;;;;;24.33;9.98;;;;;;;18.34;100.00;98692.91;5098480;28;20044;-93
2023/07/06 02:05:02;;;;;;;25.05;10.23;;;;;;;18.32;100.00;98685.91;5098373;28;20071;-93
2023/07/06 02:07:31;;;;;;;24.23;10.38;;;;;;;18.28;100.00;98677.13;5097393;28;20036;-92
2023/07/06 02:09:57;;;;;;;22.73;9.77;;;;;;;18.26;100.00;98669.19;5097264;28;20044;-93
2023/07/06 02:12:25;;;;;;;21.90;9.07;;;;;;;18.32;100.00;98673.31;5098185;28;20397;-93
2023/07/06 02:14:53;;;;;;;22.10;10.25;;;;;;;18.33;100.00;98668.81;5098546;28;20036;-93
2023/07/06 02:17:20;;;;;;;24.10;9.93;;;;;;;18.35;100.00;98683.91;5099312;28;20036;-93
2023/07/06 02:19:46;;;;;;;20.63;9.45;;;;;;;18.23;100.00;98660.41;5098433;28;20028;-94
2023/07/06 02:22:12;;;;;;;19.45;9.77;;;;;;;18.21;100.00;98665.88;5098629;28;20525;-93
2023/07/06 02:24:38;;;;;;;27.65;11.32;;;;;;;18.23;100.00;98674.72;5098333;28;20093;-92
2023/07/06 02:27:05;;;;;;;25.73;11.00;;;;;;;18.13;100.00;98660.09;5097866;28;20072;-93
2023/07/06 02:29:34;;;;;;;25.77;10.88;;;;;;;18.10;100.00;98657.59;5097938;28;20447;-92
2023/07/06 02:32:00;;;;;;;23.60;10.00;;;;;;;18.09;100.00;98641.53;5097846;28;20143;-92
2023/07/06 02:34:26;;;;;;;27.33;10.40;;;;;;;18.22;100.00;98667.63;5098250;28;20040;-92
2023/07/06 02:36:52;;;;;;;25.88;10.50;;;;;;;18.12;100.00;98655.66;5098352;28;20043;-93
2023/07/06 02:39:20;;;;;;;23.83;9.50;;;;;;;18.06;100.00;98661.41;5098619;28;20040;-92
2023/07/06 02:41:46;;;;;;;22.60;10.20;;;;;;;17.92;100.00;98642.53;5098209;28;20103;-92
2023/07/06 02:44:12;;;;;;;24.33;10.82;;;;;;;17.94;100.00;98648.69;5097453;28;20051;-93
2023/07/06 02:46:39;;;;;;;24.63;10.70;;;;;;;17.93;100.00;98655.03;5098000;28;20059;-92
2023/07/06 02:49:05;;;;;;;23.27;9.32;;;;;;;18.00;100.00;98669.84;5098246;28;20048;-92
2023/07/06 02:51:34;;;;;;;22.67;10.85;;;;;;;17.95;100.00;98669.25;5097038;28;20042;-93
2023/07/06 02:53:59;;;;;;;23.50;10.47;;;;;;;18.04;100.00;98669.59;5097352;28;20040;-93
2023/07/06 02:56:26;;;;;;;22.83;10.52;;;;;;;17.92;100.00;98639.84;5097101;28;20062;-92
2023/07/06 02:58:52;;;;;;;25.83;9.73;;;;;;;17.95;100.00;98658.50;5098099;28;20078;-92
2023/07/06 03:01:18;;;;;;;22.60;10.07;;;;;;;17.93;100.00;98649.66;5097757;28;20040;-92
2023/07/06 03:03:46;;;;;;;20.98;9.80;;;;;;;17.88;100.00;98657.13;5098072;28;20045;-91
2023/07/06 03:06:12;;;;;;;26.35;10.50;;;;;;;17.98;100.00;98669.09;5098207;28;20040;-92
2023/07/06 03:08:38;;;;;;;25.90;11.32;;;;;;;17.89;100.00;98645.41;5098017;28;20058;-92
2023/07/06 03:11:04;;;;;;;23.95;10.80;;;;;;;17.81;100.00;98633.25;5097597;28;20040;-93
2023/07/06 03:13:31;;;;;;;24.90;11.00;;;;;;;17.92;100.00;98656.00;5098076;28;20040;-93
2023/07/06 03:15:58;;;;;;;24.27;10.40;;;;;;;17.89;100.00;98645.41;5098075;28;20066;-92
2023/07/06 03:18:24;;;;;;;23.13;10.30;;;;;;;17.82;100.00;98636.81;5083773;28;20044;-92
2023/07/06 03:20:52;;;;;;;29.55;11.02;;;;;;;17.77;100.00;98620.94;5098291;28;20044;-93
2023/07/06 03:23:18;;;;;;;23.50;11.43;;;;;;;17.81;100.00;98646.69;5097135;28;20576;-91
2023/07/06 03:25:44;;;;;;;25.42;11.00;;;;;;;17.83;100.00;98646.66;5097433;28;20099;-92
2023/07/06 03:28:10;;;;;;;23.98;10.23;;;;;;;17.75;100.00;98638.13;5098110;28;20086;-95
2023/07/06 03:30:36;;;;;;;26.83;10.75;;;;;;;17.79;100.00;98656.66;5096974;28;20397;-92
2023/07/06 03:33:02;;;;;;;22.73;9.95;;;;;;;17.85;100.00;98668.94;5096926;28;20048;-94
2023/07/06 03:35:28;;;;;;;21.55;9.93;;;;;;;17.82;100.00;98663.72;5098143;28;20047;-93
2023/07/06 03:37:58;;;;;;;26.85;10.77;;;;;;;17.64;100.00;98630.69;5097524;28;20497;-94
2023/07/06 03:40:26;;;;;;;26.30;11.27;;;;;;;17.83;100.00;98666.34;5097578;28;20081;-92
2023/07/06 03:42:55;;;;;;;28.63;10.63;;;;;;;17.83;100.00;98652.88;5097368;28;20083;-93
2023/07/06 03:45:23;;;;;;;25.33;10.23;;;;;;;17.76;100.00;98638.03;5077089;28;20048;-92
2023/07/06 03:47:50;;;;;;;25.58;10.35;;;;;;;17.82;100.00;98650.28;5077120;28;20040;-93
2023/07/06 03:50:20;;;;;;;24.83;10.63;;;;;;;17.71;100.00;98645.50;5085739;28;20044;-93
2023/07/06 03:52:46;;;;;;;21.42;10.85;;;;;;;17.78;100.00;98673.78;5096993;28;20577;-93
2023/07/06 03:55:17;;;;;;;26.80;11.00;;;;;;;17.68;100.00;98650.19;5097226;28;20142;-94
2023/07/06 03:57:45;;;;;;;26.90;11.30;;;;;;;17.77;100.00;98665.78;5097527;28;20052;-93
2023/07/06 04:00:19;;;;;;;;;;;;;;;17.82;100.00;98674.47;5097797;28;20512;-93
2023/07/06 04:02:46;;;;;;;24.38;9.68;;;;;;;17.78;100.00;98673.78;5098029;28;19958;-92
2023/07/06 04:05:12;;;;;;;22.60;9.45;;;;;;;17.63;100.00;98650.44;5097634;28;20051;-94
2023/07/06 04:07:38;;;;;;;27.25;10.95;;;;;;;17.63;100.00;98650.44;5096607;28;20040;-93
2023/07/06 04:10:05;;;;;;;25.52;10.70;;;;;;;17.80;100.00;98674.56;5096181;28;20044;-92
2023/07/06 04:12:32;;;;;;;24.90;10.77;;;;;;;17.71;100.00;98656.25;5097151;28;20023;-93
2023/07/06 04:14:58;;;;;;;25.10;10.65;;;;;;;17.79;100.00;98667.44;5096846;28;20090;-93
2023/07/06 04:17:24;;;;;;;30.02;11.00;;;;;;;17.84;100.00;98684.19;5095981;28;20048;-93
2023/07/06 04:19:53;;;;;;;23.52;10.15;;;;;;;17.77;100.00;98661.28;5095706;28;20048;-92
2023/07/06 04:22:19;;;;;;;30.73;10.82;;;;;;;17.80;100.00;98674.56;5096631;28;20113;-92
2023/07/06 04:24:45;;;;;;;24.98;11.73;;;;;;;17.89;100.00;98686.63;5096758;28;20040;-93
2023/07/06 04:27:10;;;;;;;26.08;11.57;;;;;;;18.21;100.00;98694.63;5096601;28;20040;-93
2023/07/06 04:29:38;;;;;;;26.17;11.38;;;;;;;18.24;100.00;98692.63;5097049;28;20067;-92
2023/07/06 04:32:04;;;;;;;22.67;11.05;;;;;;;18.22;100.00;98686.47;5096450;28;20052;-92
2023/07/06 04:34:31;;;;;;;30.20;11.57;;;;;;;18.22;100.00;98674.84;5098418;28;20062;-93
2023/07/06 04:36:56;;;;;;;26.20;11.75;;;;;;;18.19;100.00;98662.41;5098918;28;20044;-92
2023/07/06 04:39:22;;;;;;;28.95;11.35;;;;;;;18.35;100.00;98683.91;5097031;28;20054;-92
2023/07/06 04:41:48;;;;;;;37.80;12.00;;;;;;;18.32;100.00;98661.69;5097254;28;20040;-94
2023/07/06 04:44:15;;;;;;;25.50;10.95;;;;;;;18.41;100.00;98669.19;5097063;28;20028;-93
2023/07/06 04:46:45;;;;;;;23.77;11.90;;;;;;;18.56;100.00;98687.09;5097290;28;20032;-92
2023/07/06 04:49:11;;;;;;;24.20;11.68;;;;;;;18.51;100.00;98672.19;5096958;28;20046;-93
2023/07/06 04:51:37;;;;;;;30.77;12.13;;;;;;;18.53;100.00;98671.16;5095954;28;20120;-92
2023/07/06 04:54:04;;;;;;;29.73;11.45;;;;;;;18.66;100.00;98673.94;5096853;28;20489;-94
2023/07/06 04:56:30;;;;;;;27.70;11.85;;;;;;;18.80;100.00;98697.38;5095522;28;20040;-94
2023/07/06 04:58:56;;;;;;;26.50;11.20;;;;;;;19.03;100.00;98696.78;5094906;28;20469;-94
2023/07/06 05:01:24;;;;;;;25.00;11.50;;;;;;;19.32;100.00;98685.97;5095703;28;20494;-93
2023/07/06 05:03:52;;;;;;;27.80;11.82;;;;;;;19.80;100.00;98691.00;5095790;28;20404;-93
2023/07/06 05:06:19;;;;;;;28.03;11.67;;;;;;;20.25;100.00;98670.00;5096305;28;20460;-93
2023/07/06 05:08:46;;;;;;;24.92;11.38;;;;;;;20.79;100.00;98680.69;5096119;28;20277;-93
2023/07/06 05:11:12;;;;;;;24.35;11.18;;;;;;;21.36;100.00;98689.28;5095560;28;20050;-93
2023/07/06 05:13:41;;;;;;;27.83;10.70;;;;;;;21.65;100.00;98679.94;5096710;28;20547;-92
2023/07/06 05:16:07;;;;;;;27.55;10.57;;;;;;;21.93;100.00;98657.06;5096599;28;20097;-93
2023/07/06 05:18:33;;;;;;;25.80;10.68;;;;;;;22.28;100.00;98677.06;5097435;28;20040;-93
2023/07/06 05:21:00;;;;;;;26.73;11.13;;;;;;;22.38;100.00;98679.91;5099262;28;20036;-93
2023/07/06 05:23:28;;;;;;;45.90;20.63;;;;;;;22.54;100.00;98675.06;5099464;28;20044;-93
2023/07/06 05:25:55;;;;;;;38.95;18.75;;;;;;;22.53;100.00;98668.78;5099252;28;20032;-93
2023/07/06 05:28:22;;;;;;;25.55;11.95;;;;;;;22.77;100.00;98687.66;5099826;28;20036;-94
2023/07/06 05:30:49;;;;;;;23.63;10.73;;;;;;;23.07;100.00;98691.66;5099281;28;20043;-92
2023/07/06 05:33:15;;;;;;;20.08;11.13;;;;;;;23.28;100.00;98696.38;5101662;28;20032;-93
2023/07/06 05:35:42;;;;;;;20.02;10.02;;;;;;;23.16;100.00;98693.66;5102930;28;20074;-92
2023/07/06 05:38:10;;;;;;;19.85;9.43;;;;;;;22.84;100.00;98679.91;5099498;28;20067;-92
2023/07/06 05:40:36;;;;;;;20.13;9.73;;;;;;;22.87;100.00;98673.38;5098322;28;20048;-93
2023/07/06 05:43:02;;;;;;;18.35;8.80;;;;;;;23.12;100.00;98675.91;5099627;28;20112;-93
2023/07/06 05:45:28;;;;;;;19.33;9.45;;;;;;;23.40;99.70;98676.38;5099050;28;20043;-94
2023/07/06 05:47:54;;;;;;;19.30;9.52;;;;;;;22.90;100.00;98662.28;5098683;28;20040;-92
2023/07/06 05:50:21;;;;;;;24.88;9.38;;;;;;;22.58;100.00;98665.69;5091633;28;20044;-92
2023/07/06 05:52:47;;;;;;;18.80;9.57;;;;;;;22.52;100.00;98694.13;5095959;28;20521;-93
2023/07/06 05:55:15;;;;;;;21.33;11.10;;;;;;;22.47;100.00;98692.78;5098984;28;20040;-92
2023/07/06 05:57:41;;;;;;;21.42;9.90;;;;;;;22.21;100.00;98697.47;5098975;28;20043;-92
2023/07/06 06:00:11;;;;;;;19.45;9.93;;;;;;;22.28;100.00;98702.31;5098547;28;20056;-92
2023/07/06 06:02:38;;;;;;;20.25;9.32;;;;;;;22.35;100.00;98687.28;5101627;28;20072;-90
2023/07/06 06:05:06;;;;;;;19.55;9.13;;;;;;;22.89;100.00;98704.81;5099520;28;20044;-92
2023/07/06 06:07:33;;;;;;;22.88;9.20;;;;;;;23.31;100.00;98682.53;5099262;28;20044;-93
2023/07/06 06:10:03;;;;;;;21.25;9.65;;;;;;;23.81;99.58;98690.28;5099084;28;20036;-92
2023/07/06 06:12:31;;;;;;;23.63;10.20;;;;;;;23.83;99.73;98701.88;5099618;28;20425;-93
2023/07/06 06:14:57;;;;;;;;;;;;;;;24.15;98.14;98715.50;5098758;28;20077;-90
2023/07/06 06:17:27;;;;;;;18.35;9.10;;;;;;;24.03;95.56;98702.94;5098204;28;20370;-93
2023/07/06 06:19:53;;;;;;;22.17;9.60;;;;;;;23.84;94.85;98698.19;5098772;28;20564;-95
2023/07/06 06:22:19;;;;;;;18.95;8.93;;;;;;;24.04;94.33;98696.53;5098909;28;20047;-94
2023/07/06 06:24:46;;;;;;;24.55;10.23;;;;;;;24.03;94.89;98675.75;5099195;28;20078;-94
2023/07/06 06:27:14;;;;;;;19.67;8.95;;;;;;;23.95;93.23;98682.72;5097162;28;20036;-94
2023/07/06 06:29:42;;;;;;;20.63;9.68;;;;;;;23.38;97.28;98697.34;5097859;28;20050;-92
2023/07/06 06:32:09;;;;;;;20.13;8.87;;;;;;;23.53;97.18;98690.69;5099384;28;20048;-92
2023/07/06 06:34:35;;;;;;;19.95;8.32;;;;;;;23.90;92.04;98689.50;5099093;28;20040;-92
2023/07/06 06:37:03;;;;;;;18.75;8.60;;;;;;;24.26;91.66;98701.84;5098690;28;20047;-93
2023/07/06 06:39:29;;;;;;;18.15;8.43;;;;;;;24.51;88.11;98688.94;5098552;28;20040;-91
2023/07/06 06:41:55;;;;;;;19.75;8.65;;;;;;;24.57;89.76;98678.41;5098346;28;20044;-93
2023/07/06 06:44:21;;;;;;;19.67;8.25;;;;;;;24.82;89.26;98698.03;5098348;28;20130;-92
2023/07/06 06:46:48;;;;;;;18.45;8.85;;;;;;;24.80;89.07;98681.81;5098984;28;20051;-92
2023/07/06 06:49:14;;;;;;;17.63;8.50;;;;;;;24.61;88.28;98676.25;5098621;28;20064;-93
2023/07/06 06:51:42;;;;;;;21.48;8.80;;;;;;;24.17;90.49;98676.31;5098957;28;20044;-93
2023/07/06 06:54:08;;;;;;;15.93;8.15;;;;;;;24.44;89.93;98668.66;5098338;28;20040;-92
2023/07/06 06:56:35;;;;;;;20.42;8.73;;;;;;;24.92;90.29;98665.44;5098132;28;20050;-92
2023/07/06 06:59:01;;;;;;;21.52;8.88;;;;;;;25.56;87.91;98689.66;5097194;28;20561;-92
2023/07/06 07:01:27;;;;;;;17.92;8.50;;;;;;;25.62;85.23;98677.34;5097203;28;20032;-92
2023/07/06 07:03:54;;;;;;;20.73;8.55;;;;;;;25.42;88.86;98693.63;5096676;28;20082;-92
2023/07/06 07:06:22;;;;;;;16.48;8.50;;;;;;;25.53;85.79;98684.50;5097563;28;20134;-92
2023/07/06 07:08:49;;;;;;;17.65;8.02;;;;;;;25.45;84.73;98661.69;5097922;28;20127;-93
2023/07/06 07:11:19;;;;;;;17.55;8.65;;;;;;;25.45;85.88;98678.03;5097969;28;20044;-94
2023/07/06 07:13:46;;;;;;;18.88;8.48;;;;;;;25.36;87.52;98672.41;5098400;28;20036;-94
2023/07/06 07:16:12;;;;;;;18.88;8.80;;;;;;;25.55;85.89;98665.31;5098627;28;20044;-94
2023/07/06 07:18:38;;;;;;;22.63;8.88;;;;;;;25.73;84.26;98669.06;5098918;28;20044;-92
2023/07/06 07:21:06;;;;;;;19.63;8.05;;;;;;;25.84;85.68;98665.34;5097656;28;20493;-93
2023/07/06 07:23:35;;;;;;;20.38;8.25;;;;;;;26.14;82.72;98663.56;5097941;28;20047;-95
2023/07/06 07:26:03;;;;;;;18.45;8.55;;;;;;;26.39;80.87;98686.63;5097924;28;20040;-95
2023/07/06 07:28:31;;;;;;;20.05;8.38;;;;;;;26.64;82.21;98691.53;5098510;28;20094;-94
2023/07/06 07:30:58;;;;;;;21.70;9.13;;;;;;;26.60;80.88;98661.97;5097798;28;20436;-93
2023/07/06 07:33:27;;;;;;;19.92;8.98;;;;;;;25.93;82.58;98667.25;5098865;28;20090;-93
2023/07/06 07:35:53;;;;;;;19.20;8.65;;;;;;;25.89;84.28;98657.63;5100659;28;20040;-94
2023/07/06 07:38:20;;;;;;;18.40;8.70;;;;;;;25.72;84.57;98670.06;5098988;28;20410;-93
2023/07/06 07:40:56;;;;;;;21.27;8.68;;;;;;;26.05;85.50;98675.31;5098793;28;20032;-94
2023/07/06 07:43:25;;;;;;;18.58;8.50;;;;;;;26.30;84.57;98663.84;5097598;28;20028;-94
2023/07/06 07:45:54;;;;;;;15.90;8.20;;;;;;;26.47;82.13;98655.94;5097010;28;20067;-95
2023/07/06 07:48:22;;;;;;;16.73;8.48;;;;;;;26.92;79.79;98677.16;5099363;28;20044;-95
2023/07/06 07:50:48;;;;;;;22.70;10.63;;;;;;;26.91;79.48;98656.31;5102007;28;20463;-95
2023/07/06 07:53:14;;;;;;;16.70;8.27;;;;;;;27.12;79.55;98669.75;5096697;28;20482;-93
2023/07/06 07:55:42;;;;;;;21.48;8.35;;;;;;;27.21;78.66;98672.47;5098761;28;20047;-93
2023/07/06 07:58:08;;;;;;;19.90;8.20;;;;;;;26.99;77.31;98678.25;5096932;28;20043;-94
2023/07/06 08:00:34;;;;;;;20.15;7.97;;;;;;;26.84;77.61;98661.50;5097714;28;20097;-93
2023/07/06 08:03:03;;;;;;;18.45;7.72;;;;;;;26.97;79.77;98648.38;5097782;28;20043;-94
2023/07/06 08:05:29;;;;;;;17.23;7.68;;;;;;;27.13;77.73;98666.00;5097303;28;20135;-94
2023/07/06 08:07:55;;;;;;;16.33;7.07;;;;;;;26.63;76.99;98680.75;5096418;28;20128;-94
2023/07/06 08:10:21;;;;;;;18.88;8.77;;;;;;;26.73;80.39;98681.63;5096661;28;20040;-93
2023/07/06 08:12:49;;;;;;;15.57;7.85;;;;;;;26.86;77.93;98683.19;5095817;28;20040;-93
2023/07/06 08:15:15;;;;;;;16.40;7.20;;;;;;;26.91;75.15;98686.31;5095599;28;20036;-94
2023/07/06 08:17:42;;;;;;;14.35;7.57;;;;;;;26.81;75.31;98668.13;5096003;28;20043;-93
2023/07/06 08:20:10;;;;;;;15.13;7.07;;;;;;;26.29;75.60;98688.53;5094543;28;20047;-93
2023/07/06 08:22:36;;;;;;;14.80;7.43;;;;;;;26.05;77.78;98683.50;5093637;28;20047;-92
2023/07/06 08:25:08;;;;;;;17.02;7.05;;;;;;;26.40;80.00;98691.09;5096790;28;20016;-92
2023/07/06 08:27:34;;;;;;;17.23;7.75;;;;;;;27.06;75.95;98687.56;5094794;28;20024;-92
2023/07/06 08:30:02;;;;;;;15.80;7.20;;;;;;;27.40;70.62;98678.88;5096571;28;20040;-93
2023/07/06 08:32:28;;;;;;;15.35;7.20;;;;;;;27.75;72.34;98675.34;5095399;28;20048;-93
2023/07/06 08:34:54;;;;;;;14.23;8.02;;;;;;;27.66;71.22;98681.75;5097192;28;20048;-95
2023/07/06 08:37:20;;;;;;;19.77;8.45;;;;;;;27.09;75.00;98670.91;5096535;28;20139;-95
2023/07/06 08:39:46;;;;;;;18.73;6.97;;;;;;;27.41;73.25;98645.94;5096535;28;20128;-94
2023/07/06 08:42:18;;;;;;;14.15;7.20;;;;;;;27.38;70.29;98648.97;5094617;28;20044;-91
2023/07/06 08:44:50;;;;;;;14.23;6.47;;;;;;;27.30;72.18;98672.56;5095638;28;20044;-93
2023/07/06 08:47:18;;;;;;;16.55;7.05;;;;;;;27.71;71.74;98664.88;5095490;28;20457;-92
2023/07/06 08:49:45;;;;;;;14.60;6.95;;;;;;;27.82;71.82;98653.75;5093689;28;20043;-92
2023/07/06 08:52:12;;;;;;;17.27;7.65;;;;;;;28.18;69.83;98678.41;5095249;28;20481;-93
2023/07/06 08:54:39;;;;;;;13.00;7.35;;;;;;;28.32;58.79;98675.13;5098515;28;20551;-93
2023/07/06 08:57:14;;;;;;;14.25;6.85;;;;;;;28.24;56.08;98656.78;5099337;28;20076;-93
2023/07/06 08:59:43;;;;;;;12.85;7.13;;;;;;;28.43;55.56;98646.66;5099295;28;20044;-92
2023/07/06 09:02:21;;;;;;;19.00;6.90;;;;;;;28.10;52.58;98664.66;5098945;28;20493;-93
2023/07/06 09:04:50;;;;;;;16.75;7.10;;;;;;;28.15;52.31;98657.72;5099677;28;20044;-92
2023/07/06 09:07:18;;;;;;;12.50;6.60;;;;;;;28.64;53.49;98662.78;5099407;28;20135;-93
2023/07/06 09:09:47;;;;;;;14.82;6.72;;;;;;;28.77;50.51;98663.22;5099456;28;20044;-92
2023/07/06 09:12:17;;;;;;;;;;;;;;;29.06;50.63;98662.00;5099712;28;20040;-92
2023/07/06 09:14:48;;;;;;;16.90;6.65;;;;;;;29.32;49.00;98667.53;5098649;28;19924;-93
2023/07/06 09:17:16;;;;;;;14.02;6.65;;;;;;;29.42;48.44;98664.66;5098975;28;20059;-92
2023/07/06 09:19:44;;;;;;;16.88;7.28;;;;;;;29.67;46.95;98669.22;5098749;28;20024;-93
2023/07/06 09:22:11;;;;;;;12.43;6.10;;;;;;;29.84;47.52;98659.19;5098376;28;20513;-92
2023/07/06 09:24:37;;;;;;;13.65;6.18;;;;;;;29.68;47.14;98648.13;5098695;28;20040;-92
2023/07/06 09:27:09;;;;;;;15.07;6.55;;;;;;;29.50;46.93;98667.44;5097448;28;20057;-93
2023/07/06 09:29:37;;;;;;;12.90;6.50;;;;;;;29.32;46.90;98653.84;5097233;28;20035;-93
2023/07/06 09:32:16;;;;;;;21.35;6.97;;;;;;;29.08;48.00;98663.59;5096276;28;20052;-93
2023/07/06 09:34:45;;;;;;;12.93;7.03;;;;;;;29.11;48.83;98661.59;5097448;28;20040;-94
2023/07/06 09:37:13;;;;;;;14.40;7.00;;;;;;;29.54;48.13;98670.69;5095657;28;20044;-93
2023/07/06 09:39:40;;;;;;;12.43;6.97;;;;;;;29.70;48.13;98659.81;5098527;28;20036;-93
2023/07/06 09:42:10;;;;;;;14.13;6.45;;;;;;;29.45;46.03;98658.81;5098308;28;20128;-93
2023/07/06 09:44:35;;;;;;;10.00;5.97;;;;;;;29.46;47.75;98668.78;5098212;28;20032;-93
2023/07/06 09:47:03;;;;;;;11.95;6.43;;;;;;;29.57;48.39;98652.03;5095531;28;20032;-93
2023/07/06 09:49:38;;;;;;;16.10;6.43;;;;;;;28.94;47.25;98646.91;5097657;28;20036;-92
2023/07/06 09:52:09;;;;;;;14.23;6.60;;;;;;;29.34;46.99;98662.72;5097195;28;20040;-91
2023/07/06 09:54:46;;;;;;;12.27;5.80;;;;;;;29.63;48.24;98653.28;5097129;28;20040;-93
2023/07/06 09:57:15;;;;;;;12.65;6.13;;;;;;;29.62;46.29;98651.53;5095872;28;20497;-93
2023/07/06 09:59:44;;;;;;;13.38;6.22;;;;;;;29.80;47.09;98622.16;5097645;28;20063;-92
2023/07/06 10:02:24;;;;;;;10.15;6.05;;;;;;;29.35;46.40;98628.84;5097673;28;20484;-94
2023/07/06 10:04:59;;;;;;;11.07;5.53;;;;;;;29.71;45.69;98650.56;5096826;28;20070;-92
2023/07/06 10:07:34;;;;;;;10.35;5.93;;;;;;;29.85;42.90;98652.66;5096312;28;20127;-93
2023/07/06 10:10:13;;;;;;;11.50;5.65;;;;;;;30.16;44.79;98670.38;5097464;28;20056;-93
2023/07/06 10:12:46;;;;;;;12.63;5.80;;;;;;;30.15;42.43;98671.44;5096344;28;20125;-93
2023/07/06 10:15:21;;;;;;;9.93;5.13;;;;;;;30.28;42.67;98644.38;5094920;28;20405;-92
2023/07/06 10:17:55;;;;;;;11.15;5.55;;;;;;;30.55;42.44;98659.63;5097340;28;20040;-93
2023/07/06 10:20:26;;;;;;;9.27;5.25;;;;;;;30.50;42.52;98640.09;5097449;28;20043;-94
2023/07/06 10:23:15;;;;;;;11.82;5.57;;;;;;;30.31;40.38;98657.75;5098889;28;20551;-93
2023/07/06 10:25:46;;;;;;;15.60;5.95;;;;;;;30.34;41.73;98648.31;5096912;28;20535;-93
2023/07/06 10:28:18;;;;;;;9.10;5.47;;;;;;;30.62;41.34;98646.06;5098375;28;20486;-93
2023/07/06 10:30:49;;;;;;;8.18;4.80;;;;;;;30.75;39.72;98654.63;5097609;28;20058;-93
2023/07/06 10:33:21;;;;;;;10.10;5.10;;;;;;;30.82;40.96;98646.59;5096400;28;20047;-92
2023/07/06 10:35:50;;;;;;;8.98;4.88;;;;;;;30.86;39.90;98629.63;5096447;28;20054;-93
2023/07/06 10:38:17;;;;;;;8.68;4.57;;;;;;;31.05;39.91;98627.50;5097334;28;20093;-93
2023/07/06 10:40:49;;;;;;;10.70;5.18;;;;;;;30.99;39.58;98626.34;5097417;28;20037;-94
2023/07/06 10:43:21;;;;;;;10.65;5.22;;;;;;;31.18;40.83;98636.03;5095541;28;20048;-94
2023/07/06 10:45:48;;;;;;;10.90;4.90;;;;;;;31.03;38.39;98629.56;5095815;28;20074;-94
2023/07/06 10:48:26;;;;;;;8.55;4.90;;;;;;;30.81;39.90;98625.66;5094143;28;20044;-92
2023/07/06 10:51:06;;;;;;;10.13;5.32;;;;;;;30.68;41.55;98617.94;5096166;28;20095;-92
2023/07/06 10:53:37;;;;;;;13.45;5.75;;;;;;;30.40;40.96;98623.78;5094687;28;20849;-90
2023/07/06 10:56:17;;;;;;;11.18;5.10;;;;;;;30.83;41.92;98632.66;5095766;28;20493;-93
2023/07/06 10:58:54;;;;;;;11.73;5.45;;;;;;;30.58;41.44;98629.13;5095914;28;20044;-90
2023/07/06 11:01:22;;;;;;;9.23;4.93;;;;;;;30.47;41.89;98613.84;5096172;28;20036;-93
2023/07/06 11:03:48;;;;;;;;;;;;;;;30.64;42.34;98641.28;5096618;28;20068;-92
2023/07/06 11:06:17;;;;;;;12.48;5.07;;;;;;;30.88;42.10;98621.19;5097021;28;20403;-94
2023/07/06 11:09:03;;;;;;;10.70;5.13;;;;;;;31.02;41.54;98639.72;5095193;28;20043;-91
2023/07/06 11:11:34;;;;;;;8.88;5.28;;;;;;;31.06;40.13;98619.09;5095771;28;20063;-93
2023/07/06 11:14:20;;;;;;;10.48;5.05;;;;;;;31.08;41.21;98606.06;5096894;28;20069;-93
2023/07/06 11:16:55;;;;;;;11.75;5.47;;;;;;;30.80;41.59;98605.56;5090644;28;20031;-95
2023/07/06 11:19:27;;;;;;;10.75;5.40;;;;;;;30.71;42.48;98623.94;5098327;28;20091;-92
2023/07/06 11:21:58;;;;;;;8.95;5.10;;;;;;;30.55;42.86;98620.38;5097192;28;20048;-93
2023/07/06 11:24:32;;;;;;;9.98;5.32;;;;;;;30.89;43.39;98621.03;5103075;28;20071;-93
2023/07/06 11:27:04;;;;;;;12.30;5.80;;;;;;;30.85;42.10;98627.00;5097522;28;20093;-90
2023/07/06 11:29:31;;;;;;;9.88;5.28;;;;;;;30.87;42.35;98608.50;5097205;28;20393;-93